createdAt,value
2018-06-16T00:00:04.525Z,10.83
2018-06-16T00:02:32.637Z,9.80
2018-06-16T00:05:00.736Z,12.63
2018-06-16T00:07:28.865Z,10.50
2018-06-16T00:09:56.968Z,11.27
2018-06-16T00:12:25.308Z,14.10
2018-06-16T00:14:53.464Z,9.80
2018-06-16T00:17:21.572Z,10.80
2018-06-16T00:19:49.666Z,10.17
2018-06-16T00:22:17.788Z,12.80
2018-06-16T00:24:45.891Z,10.93
2018-06-16T00:27:14.004Z,11.30
2018-06-16T00:29:42.108Z,12.90
2018-06-16T00:32:10.232Z,15.03
2018-06-16T00:34:38.316Z,11.87
2018-06-16T00:37:06.414Z,11.33
2018-06-16T00:39:34.500Z,14.10
2018-06-16T00:42:02.597Z,11.00
2018-06-16T00:44:30.684Z,11.93
2018-06-16T00:46:58.781Z,15.17
2018-06-16T00:49:26.864Z,11.37
2018-06-16T00:51:55.260Z,15.93
2018-06-16T00:54:23.343Z,12.73
2018-06-16T00:56:56.880Z,13.10
2018-06-16T00:59:24.969Z,15.03
2018-06-16T01:01:53.078Z,13.63
2018-06-16T01:04:21.176Z,16.77
2018-06-16T01:06:49.272Z,14.10
2018-06-16T01:09:17.357Z,16.10
2018-06-16T01:11:45.465Z,16.67
2018-06-16T01:14:13.563Z,18.20
2018-06-16T01:16:41.681Z,15.43
2018-06-16T01:19:09.772Z,13.53
2018-06-16T01:21:37.872Z,14.20
2018-06-16T01:24:05.960Z,14.07
2018-06-16T01:26:34.043Z,12.17
2018-06-16T01:29:02.143Z,15.33
2018-06-16T01:31:30.232Z,14.10
2018-06-16T01:33:58.331Z,12.97
2018-06-16T01:36:26.415Z,14.20
2018-06-16T01:38:54.523Z,13.80
2018-06-16T01:41:22.644Z,14.80
2018-06-16T01:43:50.743Z,12.97
2018-06-16T01:46:18.832Z,14.13
2018-06-16T01:48:46.939Z,15.50
2018-06-16T01:51:15.024Z,15.30
2018-06-16T01:53:43.148Z,14.33
2018-06-16T01:56:11.348Z,13.03
2018-06-16T01:58:39.635Z,12.10
2018-06-16T02:01:07.724Z,13.83
2018-06-16T02:03:35.827Z,13.47
2018-06-16T02:06:03.945Z,15.57
2018-06-16T02:08:32.051Z,12.97
2018-06-16T02:11:00.145Z,13.83
2018-06-16T02:13:28.260Z,20.10
2018-06-16T02:15:56.360Z,12.30
2018-06-16T02:18:24.472Z,12.67
2018-06-16T02:20:52.655Z,14.47
2018-06-16T02:23:20.772Z,13.40
2018-06-16T02:25:48.872Z,12.40
2018-06-16T02:28:16.979Z,13.80
2018-06-16T02:30:45.082Z,13.27
2018-06-16T02:33:13.197Z,12.60
2018-06-16T02:35:41.301Z,15.20
2018-06-16T02:38:09.410Z,13.17
2018-06-16T02:40:37.501Z,17.03
2018-06-16T02:43:05.631Z,15.00
2018-06-16T02:45:33.756Z,15.00
2018-06-16T02:48:01.864Z,17.27
2018-06-16T02:50:30.101Z,12.43
2018-06-16T02:52:58.099Z,14.47
2018-06-16T02:55:26.188Z,13.97
2018-06-16T02:57:54.292Z,15.47
2018-06-16T03:00:22.376Z,14.90
2018-06-16T03:02:50.476Z,12.57
2018-06-16T03:05:18.560Z,13.70
2018-06-16T03:07:46.685Z,15.63
2018-06-16T03:10:14.796Z,15.83
2018-06-16T03:12:42.879Z,17.30
2018-06-16T03:15:11.060Z,18.67
2018-06-16T03:17:39.099Z,14.70
2018-06-16T03:20:07.420Z,13.60
2018-06-16T03:22:35.512Z,14.90
2018-06-16T03:25:03.632Z,11.37
2018-06-16T03:27:31.719Z,14.10
2018-06-16T03:29:59.832Z,12.63
2018-06-16T03:32:27.920Z,13.70
2018-06-16T03:34:56.155Z,17.17
2018-06-16T03:37:24.244Z,14.30
2018-06-16T03:39:52.349Z,13.50
2018-06-16T03:42:20.433Z,10.90
2018-06-16T03:44:48.536Z,11.70
2018-06-16T03:47:16.616Z,14.43
2018-06-16T03:49:44.720Z,12.50
2018-06-16T03:52:12.815Z,14.50
2018-06-16T03:54:40.922Z,11.53
2018-06-16T03:57:09.016Z,15.00
2018-06-16T03:59:37.115Z,10.30
2018-06-16T04:02:05.220Z,12.00
2018-06-16T04:04:33.315Z,10.90
2018-06-16T04:07:01.400Z,13.07
2018-06-16T04:09:29.500Z,11.40
2018-06-16T04:11:57.596Z,13.43
2018-06-16T04:14:25.699Z,11.50
2018-06-16T04:16:53.860Z,9.73
2018-06-16T04:19:21.960Z,11.43
2018-06-16T04:21:50.044Z,14.50
2018-06-16T04:24:18.148Z,7.37
2018-06-16T04:29:30.960Z,7.30
2018-06-16T04:31:59.070Z,8.47
2018-06-16T04:34:27.172Z,8.30
2018-06-16T04:36:55.264Z,11.23
2018-06-16T04:39:23.377Z,10.13
2018-06-16T04:41:51.675Z,7.83
2018-06-16T04:44:19.782Z,9.07
2018-06-16T04:46:47.872Z,7.80
2018-06-16T04:49:16.000Z,8.40
2018-06-16T04:51:44.105Z,8.80
2018-06-16T04:54:12.208Z,11.20
2018-06-16T04:56:40.296Z,7.90
2018-06-16T04:59:08.400Z,9.03
2018-06-16T05:01:36.485Z,8.47
2018-06-16T05:04:04.585Z,12.83
2018-06-16T05:06:32.665Z,7.90
2018-06-16T05:09:00.751Z,8.77
2018-06-16T05:11:28.858Z,9.70
2018-06-16T05:13:57.016Z,7.60
2018-06-16T05:16:25.117Z,8.50
2018-06-16T05:18:53.224Z,10.30
2018-06-16T05:21:21.335Z,8.50
2018-06-16T05:23:49.429Z,8.30
2018-06-16T05:26:17.522Z,8.03
2018-06-16T05:28:45.600Z,9.03
2018-06-16T05:31:13.838Z,8.80
2018-06-16T05:33:41.952Z,8.50
2018-06-16T05:36:10.068Z,9.30
2018-06-16T05:38:38.260Z,9.80
2018-06-16T05:41:06.365Z,8.67
2018-06-16T05:43:34.507Z,10.43
2018-06-16T05:46:02.600Z,8.63
2018-06-16T05:48:30.691Z,9.47
2018-06-16T05:50:58.832Z,9.70
2018-06-16T05:53:26.930Z,9.50
2018-06-16T05:55:55.048Z,8.50
2018-06-16T05:58:23.150Z,9.00
2018-06-16T06:00:51.253Z,8.17
2018-06-16T06:03:19.344Z,9.90
2018-06-16T06:05:47.488Z,9.87
2018-06-16T06:08:15.568Z,8.83
2018-06-16T06:10:43.676Z,8.73
2018-06-16T06:13:11.765Z,10.30
2018-06-16T06:15:39.927Z,9.23
2018-06-16T06:18:07.984Z,10.03
2018-06-16T06:20:36.120Z,9.67
2018-06-16T06:23:04.204Z,9.43
2018-06-16T06:25:32.312Z,9.97
2018-06-16T06:28:00.400Z,8.53
2018-06-16T06:30:28.504Z,8.60
2018-06-16T06:32:56.580Z,8.27
2018-06-16T06:35:24.684Z,8.37
2018-06-16T06:37:52.768Z,7.77
2018-06-16T06:40:20.871Z,11.00
2018-06-16T06:42:48.966Z,11.10
2018-06-16T06:45:17.189Z,7.80
2018-06-16T06:47:45.280Z,8.63
2018-06-16T06:50:13.404Z,10.10
2018-06-16T06:52:41.508Z,9.30
2018-06-16T06:55:09.604Z,8.27
2018-06-16T06:57:37.715Z,7.03
2018-06-16T07:00:05.828Z,8.87
2018-06-16T07:02:33.938Z,6.33
2018-06-16T07:05:02.035Z,7.53
2018-06-16T07:07:30.156Z,6.17
2018-06-16T07:09:58.256Z,7.00
2018-06-16T07:12:26.376Z,6.43
2018-06-16T07:14:54.464Z,8.83
2018-06-16T07:17:22.584Z,6.97
2018-06-16T07:19:50.666Z,8.73
2018-06-16T07:22:18.773Z,7.33
2018-06-16T07:24:46.861Z,5.93
2018-06-16T07:27:14.964Z,7.40
2018-06-16T07:29:43.052Z,8.20
2018-06-16T07:32:11.528Z,6.50
2018-06-16T07:34:39.940Z,7.07
2018-06-16T07:37:08.041Z,6.47
2018-06-16T07:39:36.140Z,7.63
2018-06-16T07:42:04.254Z,7.43
2018-06-16T07:44:32.347Z,7.10
2018-06-16T07:47:00.452Z,5.90
2018-06-16T07:49:28.536Z,6.53
2018-06-16T07:51:56.653Z,8.60
2018-06-16T07:54:24.736Z,5.87
2018-06-16T07:56:52.840Z,6.53
2018-06-16T07:59:20.928Z,6.07
2018-06-16T08:01:49.028Z,6.03
2018-06-16T08:04:17.120Z,6.40
2018-06-16T08:06:45.318Z,8.53
2018-06-16T08:09:13.548Z,6.73
2018-06-16T08:11:41.696Z,7.27
2018-06-16T08:14:09.775Z,7.80
2018-06-16T08:16:37.951Z,7.50
2018-06-16T08:19:06.037Z,6.13
2018-06-16T08:21:34.196Z,7.10
2018-06-16T08:24:02.285Z,6.63
2018-06-16T08:26:30.388Z,7.50
2018-06-16T08:28:58.480Z,7.50
2018-06-16T08:31:26.589Z,5.90
2018-06-16T08:33:54.715Z,8.67
2018-06-16T08:36:22.840Z,7.83
2018-06-16T08:38:50.955Z,7.50
2018-06-16T08:41:19.052Z,8.93
2018-06-16T08:43:47.156Z,8.53
2018-06-16T08:46:15.240Z,11.53
2018-06-16T08:48:43.385Z,7.17
2018-06-16T08:51:11.446Z,7.77
2018-06-16T08:53:39.572Z,6.97
2018-06-16T08:56:07.668Z,6.17
2018-06-16T08:58:35.800Z,6.10
2018-06-16T09:01:04.185Z,5.63
2018-06-16T09:03:32.284Z,7.97
2018-06-16T09:06:00.372Z,7.27
2018-06-16T09:08:28.477Z,5.73
2018-06-16T09:10:56.564Z,5.90
2018-06-16T09:13:24.680Z,5.23
2018-06-16T09:15:52.796Z,6.53
2018-06-16T09:18:20.905Z,5.60
2018-06-16T09:20:48.984Z,9.03
2018-06-16T09:23:17.104Z,8.17
2018-06-16T09:25:45.228Z,5.30
2018-06-16T09:28:13.333Z,6.83
2018-06-16T09:30:41.409Z,4.83
2018-06-16T09:33:09.512Z,6.67
2018-06-16T09:35:37.600Z,6.20
2018-06-16T09:38:05.704Z,6.10
2018-06-16T09:40:33.792Z,11.77
2018-06-16T09:43:01.896Z,8.73
2018-06-16T09:45:29.980Z,5.50
2018-06-16T09:47:58.078Z,9.50
2018-06-16T09:50:26.166Z,6.37
2018-06-16T09:52:54.293Z,6.80
2018-06-16T09:55:22.384Z,8.27
2018-06-16T09:57:50.564Z,7.57
2018-06-16T10:00:23.864Z,6.20
2018-06-16T10:02:52.529Z,6.17
2018-06-16T10:05:20.616Z,7.40
2018-06-16T10:07:48.723Z,7.80
2018-06-16T10:10:16.820Z,5.87
2018-06-16T10:12:44.999Z,6.70
2018-06-16T10:15:13.084Z,5.87
2018-06-16T10:17:41.245Z,5.63
2018-06-16T10:20:09.333Z,5.73
2018-06-16T10:22:37.448Z,8.80
2018-06-16T10:25:05.548Z,6.80
2018-06-16T10:27:33.644Z,5.73
2018-06-16T10:30:01.760Z,7.63
2018-06-16T10:32:29.852Z,5.63
2018-06-16T10:34:57.960Z,9.93
2018-06-16T10:37:26.056Z,6.23
2018-06-16T10:39:54.169Z,6.27
2018-06-16T10:42:22.256Z,6.73
2018-06-16T10:44:50.361Z,5.53
2018-06-16T10:47:18.444Z,5.60
2018-06-16T10:49:46.552Z,7.17
2018-06-16T10:52:14.652Z,6.80
2018-06-16T10:54:42.756Z,7.00
2018-06-16T10:57:10.836Z,5.53
2018-06-16T10:59:38.991Z,5.90
2018-06-16T11:02:07.075Z,5.00
2018-06-16T11:04:35.220Z,5.10
2018-06-16T11:07:03.396Z,6.00
2018-06-16T11:09:31.500Z,6.00
2018-06-16T11:11:59.616Z,6.17
2018-06-16T11:14:27.729Z,6.33
2018-06-16T11:16:55.813Z,5.13
2018-06-16T11:19:23.913Z,6.00
2018-06-16T11:21:52.013Z,5.73
2018-06-16T11:24:20.136Z,8.63
2018-06-16T11:26:48.224Z,6.97
2018-06-16T11:29:16.336Z,5.33
2018-06-16T11:31:44.428Z,8.50
2018-06-16T11:34:12.535Z,10.77
2018-06-16T11:36:40.636Z,5.20
2018-06-16T11:39:10.381Z,8.03
2018-06-16T11:41:38.533Z,5.40
2018-06-16T11:44:06.640Z,4.33
2018-06-16T11:46:34.724Z,5.00
2018-06-16T11:49:02.824Z,5.63
2018-06-16T11:51:30.912Z,4.00
2018-06-16T11:53:59.049Z,4.93
2018-06-16T11:56:27.159Z,4.60
2018-06-16T11:58:55.240Z,7.43
2018-06-16T12:01:23.344Z,6.10
2018-06-16T12:03:51.436Z,5.10
2018-06-16T12:06:19.574Z,5.63
2018-06-16T12:08:47.664Z,5.00
2018-06-16T12:11:15.800Z,6.10
2018-06-16T12:13:43.916Z,3.87
2018-06-16T12:16:12.020Z,7.90
2018-06-16T12:18:40.108Z,6.10
2018-06-16T12:21:08.206Z,5.87
2018-06-16T12:23:36.284Z,6.07
2018-06-16T12:26:04.716Z,5.07
2018-06-16T12:28:32.804Z,4.87
2018-06-16T12:31:00.928Z,5.40
2018-06-16T12:33:29.361Z,6.13
2018-06-16T12:35:57.468Z,5.33
2018-06-16T12:38:25.553Z,7.30
2018-06-16T12:40:53.668Z,5.10
2018-06-16T12:43:21.767Z,4.67
2018-06-16T12:45:49.868Z,4.30
2018-06-16T12:48:17.985Z,4.80
2018-06-16T12:50:46.114Z,6.37
2018-06-16T12:53:14.209Z,5.03
2018-06-16T12:55:42.327Z,5.13
2018-06-16T12:58:10.411Z,5.50
2018-06-16T13:00:38.512Z,5.43
2018-06-16T13:03:06.603Z,5.33
2018-06-16T13:05:35.012Z,4.80
2018-06-16T13:08:03.116Z,8.43
2018-06-16T13:10:31.233Z,5.23
2018-06-16T13:12:59.328Z,8.20
2018-06-16T13:15:27.440Z,6.33
2018-06-16T13:17:55.554Z,5.30
2018-06-16T13:20:23.661Z,5.57
2018-06-16T13:22:51.818Z,7.40
2018-06-16T13:25:19.913Z,6.10
2018-06-16T13:27:48.051Z,6.27
2018-06-16T13:30:16.145Z,7.10
2018-06-16T13:32:44.255Z,6.90
2018-06-16T13:35:12.349Z,7.30
2018-06-16T13:37:40.469Z,6.70
2018-06-16T13:40:08.556Z,6.00
2018-06-16T13:42:36.688Z,10.43
2018-06-16T13:45:04.824Z,9.03
2018-06-16T13:47:32.943Z,6.40
2018-06-16T13:50:01.045Z,6.80
2018-06-16T13:52:29.425Z,6.40
2018-06-16T13:54:57.516Z,22.03
2018-06-16T13:57:25.624Z,8.47
2018-06-16T13:59:54.009Z,6.53
2018-06-16T14:02:22.120Z,6.90
2018-06-16T14:04:50.216Z,7.73
2018-06-16T14:07:18.361Z,6.13
2018-06-16T14:09:46.452Z,6.60
2018-06-16T14:12:14.561Z,6.37
2018-06-16T14:14:42.653Z,6.60
2018-06-16T14:17:10.777Z,5.63
2018-06-16T14:19:38.864Z,6.20
2018-06-16T14:22:07.037Z,7.30
2018-06-16T14:24:35.134Z,5.80
2018-06-16T14:27:03.273Z,6.40
2018-06-16T14:29:32.621Z,6.53
2018-06-16T14:32:00.784Z,7.23
2018-06-16T14:34:28.876Z,8.10
2018-06-16T14:36:56.981Z,5.83
2018-06-16T14:39:25.065Z,10.93
2018-06-16T14:41:53.177Z,5.83
2018-06-16T14:44:21.272Z,5.60
2018-06-16T14:46:49.384Z,5.47
2018-06-16T14:49:17.545Z,6.63
2018-06-16T14:51:45.673Z,5.20
2018-06-16T14:54:13.769Z,6.10
2018-06-16T14:56:42.006Z,5.73
2018-06-16T14:59:10.108Z,9.77
2018-06-16T15:01:38.199Z,6.10
2018-06-16T15:04:06.304Z,6.17
2018-06-16T15:06:34.692Z,7.77
2018-06-16T15:09:02.853Z,7.47
2018-06-16T15:11:30.945Z,7.07
2018-06-16T15:13:59.056Z,6.13
2018-06-16T15:16:27.152Z,8.13
2018-06-16T15:18:55.260Z,8.10
2018-06-16T15:21:23.368Z,6.43
2018-06-16T15:23:51.475Z,9.60
2018-06-16T15:26:19.580Z,6.73
2018-06-16T15:28:47.698Z,6.40
2018-06-16T15:31:15.791Z,6.20
2018-06-16T15:33:43.892Z,6.80
2018-06-16T15:36:11.994Z,7.20
2018-06-16T15:38:40.108Z,6.77
2018-06-16T15:41:08.214Z,6.77
2018-06-16T15:43:36.332Z,6.57
2018-06-16T15:46:04.428Z,6.47
2018-06-16T15:48:32.537Z,6.27
2018-06-16T15:51:00.633Z,6.60
2018-06-16T15:53:28.764Z,8.73
2018-06-16T15:55:56.852Z,6.43
2018-06-16T15:58:25.014Z,7.47
2018-06-16T16:00:53.161Z,6.20
2018-06-16T16:03:21.277Z,8.20
2018-06-16T16:05:49.464Z,7.00
2018-06-16T16:08:17.506Z,6.17
2018-06-16T16:10:45.600Z,10.00
2018-06-16T16:13:13.704Z,6.13
2018-06-16T16:15:41.793Z,9.40
2018-06-16T16:18:09.906Z,7.93
2018-06-16T16:20:37.995Z,7.43
2018-06-16T16:23:06.100Z,7.93
2018-06-16T16:25:34.204Z,7.07
2018-06-16T16:28:02.311Z,7.03
2018-06-16T16:30:30.409Z,6.87
2018-06-16T16:32:58.512Z,9.23
2018-06-16T16:35:26.600Z,6.90
2018-06-16T16:37:54.710Z,7.67
2018-06-16T16:40:22.899Z,5.97
2018-06-16T16:42:50.988Z,6.80
2018-06-16T16:45:19.100Z,8.20
2018-06-16T16:47:47.192Z,9.50
2018-06-16T16:50:15.308Z,6.80
2018-06-16T16:52:43.416Z,7.00
2018-06-16T16:55:11.529Z,7.13
2018-06-16T16:57:39.616Z,7.47
2018-06-16T17:00:07.777Z,7.50
2018-06-16T17:02:35.865Z,6.77
2018-06-16T17:05:04.013Z,9.97
2018-06-16T17:07:32.429Z,6.97
2018-06-16T17:10:00.537Z,8.27
2018-06-16T17:12:28.629Z,7.50
2018-06-16T17:14:56.740Z,7.93
2018-06-16T17:17:24.831Z,8.10
2018-06-16T17:19:52.944Z,7.90
2018-06-16T17:22:21.032Z,7.97
2018-06-16T17:24:49.131Z,8.10
2018-06-16T17:27:17.220Z,8.93
2018-06-16T17:29:45.324Z,9.70
2018-06-16T17:32:13.409Z,6.83
2018-06-16T17:34:41.512Z,7.50
2018-06-16T17:37:09.600Z,9.03
2018-06-16T17:39:37.708Z,10.30
2018-06-16T17:42:05.900Z,10.53
2018-06-16T17:44:33.996Z,9.47
2018-06-16T17:47:02.096Z,7.50
2018-06-16T17:49:30.205Z,7.70
2018-06-16T17:51:58.307Z,7.97
2018-06-16T17:54:26.628Z,11.70
2018-06-16T17:56:54.716Z,7.13
2018-06-16T17:59:22.820Z,7.50
2018-06-16T18:01:50.912Z,8.90
2018-06-16T18:04:19.047Z,7.90
2018-06-16T18:06:47.149Z,8.13
2018-06-16T18:09:15.252Z,8.20
2018-06-16T18:11:43.344Z,8.40
2018-06-16T18:14:11.447Z,9.13
2018-06-16T18:16:39.543Z,8.20
2018-06-16T18:19:07.664Z,9.40
2018-06-16T18:21:35.748Z,8.00
2018-06-16T18:24:03.976Z,8.20
2018-06-16T18:26:32.072Z,12.20
2018-06-16T18:29:00.164Z,9.90
2018-06-16T18:31:28.269Z,11.00
2018-06-16T18:33:56.364Z,10.23
2018-06-16T18:36:24.468Z,8.10
2018-06-16T18:38:52.556Z,8.77
2018-06-16T18:41:20.664Z,9.20
2018-06-16T18:43:48.764Z,8.90
2018-06-16T18:46:16.867Z,13.23
2018-06-16T18:48:44.947Z,7.70
2018-06-16T18:51:13.044Z,7.93
2018-06-16T18:53:41.145Z,8.20
2018-06-16T18:56:09.251Z,7.80
2018-06-16T18:58:37.363Z,8.80
2018-06-16T19:01:05.464Z,8.10
2018-06-16T19:03:33.554Z,12.97
2018-06-16T19:06:01.657Z,10.80
2018-06-16T19:08:29.748Z,11.13
2018-06-16T19:10:57.957Z,9.77
2018-06-16T19:13:25.960Z,12.40
2018-06-16T19:15:54.068Z,8.87
2018-06-16T19:18:22.172Z,9.10
2018-06-16T19:20:50.291Z,9.40
2018-06-16T19:23:18.416Z,9.20
2018-06-16T19:25:46.521Z,9.60
2018-06-16T19:28:14.610Z,9.25
2018-06-16T19:30:42.725Z,12.83
2018-06-16T19:33:10.813Z,9.33
2018-06-16T19:35:38.920Z,13.30
2018-06-16T19:38:07.008Z,14.20
2018-06-16T19:40:35.130Z,15.20
2018-06-16T19:43:03.213Z,9.00
2018-06-16T19:45:31.314Z,11.20
2018-06-16T19:47:59.398Z,9.43
2018-06-16T19:50:27.495Z,9.13
2018-06-16T19:52:55.601Z,8.40
2018-06-16T19:55:23.712Z,12.53
2018-06-16T19:57:51.883Z,13.33
2018-06-16T20:00:19.996Z,7.67
2018-06-16T20:02:48.083Z,9.77
2018-06-16T20:05:16.183Z,8.70
2018-06-16T20:07:44.392Z,9.50
2018-06-16T20:10:12.481Z,10.93
2018-06-16T20:12:40.628Z,8.40
2018-06-16T20:15:08.727Z,9.40
2018-06-16T20:17:36.874Z,8.73
2018-06-16T20:20:06.376Z,8.20
2018-06-16T20:22:34.512Z,11.10
2018-06-16T20:25:02.608Z,10.43
2018-06-16T20:27:30.827Z,10.77
2018-06-16T20:29:58.925Z,7.80
2018-06-16T20:32:27.040Z,9.90
2018-06-16T20:34:55.136Z,11.77
2018-06-16T20:37:23.260Z,11.80
2018-06-16T20:39:51.444Z,9.83
2018-06-16T20:42:19.552Z,10.70
2018-06-16T20:44:47.648Z,8.20
2018-06-16T20:47:15.756Z,14.33
2018-06-16T20:49:43.844Z,12.13
2018-06-16T20:52:11.965Z,9.87
2018-06-16T20:54:40.053Z,10.90
2018-06-16T20:57:08.188Z,8.17
2018-06-16T20:59:36.404Z,7.70
2018-06-16T21:02:04.589Z,7.70
2018-06-16T21:04:32.684Z,10.93
2018-06-16T21:07:00.820Z,9.10
2018-06-16T21:09:28.923Z,8.80
2018-06-16T21:11:57.191Z,10.33
2018-06-16T21:14:25.439Z,11.23
2018-06-16T21:16:53.682Z,7.30
2018-06-16T21:19:21.964Z,7.20
2018-06-16T21:21:50.185Z,11.03
2018-06-16T21:24:18.383Z,9.50
2018-06-16T21:26:46.656Z,7.57
2018-06-16T21:29:15.011Z,7.93
2018-06-16T21:31:43.237Z,7.13
2018-06-16T21:34:11.331Z,7.73
2018-06-16T21:36:39.438Z,8.03
2018-06-16T21:39:08.360Z,9.60
2018-06-16T21:41:36.469Z,7.00
2018-06-16T21:44:04.565Z,10.40
2018-06-16T21:46:32.660Z,7.17
2018-06-16T21:49:00.996Z,8.70
2018-06-16T21:51:29.217Z,9.90
2018-06-16T21:53:57.312Z,7.63
2018-06-16T21:56:26.260Z,6.60
2018-06-16T21:58:54.352Z,8.17
2018-06-16T22:01:22.463Z,7.50
2018-06-16T22:03:50.573Z,9.00
2018-06-16T22:06:18.664Z,10.00
2018-06-16T22:08:46.801Z,7.43
2018-06-16T22:11:14.892Z,11.53
2018-06-16T22:13:43.001Z,8.30
2018-06-16T22:16:11.088Z,8.30
2018-06-16T22:18:39.186Z,9.63
2018-06-16T22:21:07.276Z,10.10
2018-06-16T22:23:35.381Z,14.93
2018-06-16T22:26:03.945Z,10.33
2018-06-16T22:28:32.050Z,11.40
2018-06-16T22:31:00.147Z,11.50
2018-06-16T22:33:28.271Z,10.33
2018-06-16T22:35:56.381Z,11.77
2018-06-16T22:38:24.485Z,9.73
2018-06-16T22:40:52.572Z,10.40
2018-06-16T22:43:20.696Z,13.17
2018-06-16T22:45:48.788Z,9.27
2018-06-16T22:48:16.896Z,11.70
2018-06-16T22:50:44.980Z,10.20
2018-06-16T22:53:13.108Z,11.43
2018-06-16T22:55:41.196Z,11.80
2018-06-16T22:58:09.296Z,10.20
2018-06-16T23:00:37.380Z,10.43
2018-06-16T23:03:05.490Z,15.10
2018-06-16T23:05:33.580Z,16.10
2018-06-16T23:08:01.692Z,12.20
2018-06-16T23:10:29.785Z,10.50
2018-06-16T23:12:57.900Z,12.70
2018-06-16T23:15:25.989Z,12.13
2018-06-16T23:17:54.112Z,15.37
2018-06-16T23:20:22.208Z,15.93
2018-06-16T23:22:50.312Z,12.80
2018-06-16T23:25:18.404Z,12.50
2018-06-16T23:27:46.509Z,12.50
2018-06-16T23:30:14.598Z,12.50
2018-06-16T23:32:42.704Z,12.70
2018-06-16T23:35:10.797Z,15.23
2018-06-16T23:37:38.931Z,20.90
2018-06-16T23:40:07.016Z,17.63
2018-06-16T23:42:35.140Z,15.60
2018-06-16T23:45:03.251Z,17.20
2018-06-16T23:47:31.340Z,18.87
2018-06-16T23:49:59.452Z,18.63
2018-06-16T23:52:27.564Z,17.17
2018-06-16T23:54:55.676Z,15.60
2018-06-16T23:57:23.768Z,14.40
2018-06-16T23:59:51.875Z,16.97
